Time;durP1;ratioP1;P1;durP2;ratioP2;P2;SDS_P1;SDS_P2;PMS_P1;PMS_P2;Temp;Humidity;BMP_temperature;BMP_pressure;BME280_temperature;BME280_humidity;BME280_pressure;Samples;Min_cycle;Max_cycle;Signal;HPM_P1;HPM_P2
2022/09/26 00:00:17;;;;;;;7.10;6.40;;;;;;;11.38;97.48;96013.25;108310;1267;26535;-81
2022/09/26 00:03:08;;;;;;;8.70;7.80;;;;;;;11.33;97.45;96014.61;108375;1267;22567;-81
2022/09/26 00:05:40;;;;;;;7.80;6.70;;;;;;;11.35;97.43;96014.84;108359;1267;25128;-81
2022/09/26 00:08:13;;;;;;;8.30;7.40;;;;;;;11.36;97.37;96016.52;108405;1267;22618;-81
2022/09/26 00:10:45;;;;;;;8.30;7.40;;;;;;;11.37;97.21;96012.89;108377;1267;29985;-81
2022/09/26 00:13:16;;;;;;;8.50;7.50;;;;;;;11.38;97.15;96006.13;108382;1267;22555;-81
2022/09/26 00:15:48;;;;;;;8.10;7.10;;;;;;;11.38;97.23;96003.48;108403;1267;22598;-81
2022/09/26 00:18:20;;;;;;;8.20;7.00;;;;;;;11.40;97.28;96000.73;108406;1267;23061;-82
2022/09/26 00:20:53;;;;;;;7.00;6.20;;;;;;;11.39;97.40;95993.73;108393;1267;25248;-81
2022/09/26 00:23:24;;;;;;;6.80;6.10;;;;;;;11.38;97.51;95990.42;108405;1267;22904;-82
2022/09/26 00:25:56;;;;;;;7.00;6.10;;;;;;;11.34;97.60;95989.96;108328;1268;22573;-82
2022/09/26 00:28:28;;;;;;;7.00;6.20;;;;;;;11.28;97.77;95988.35;108300;1267;31530;-81
2022/09/26 00:31:02;;;;;;;8.80;6.80;;;;;;;11.28;97.70;95983.79;108388;1267;22537;-81
2022/09/26 00:33:35;;;;;;;8.10;6.50;;;;;;;11.28;97.69;95980.70;108365;1267;22877;-82
2022/09/26 00:36:07;;;;;;;8.50;6.60;;;;;;;11.29;97.59;95975.96;108355;1268;24242;-82
2022/09/26 00:38:39;;;;;;;7.60;6.80;;;;;;;11.24;97.72;95971.72;108291;1268;27414;-81
2022/09/26 00:41:11;;;;;;;8.40;7.50;;;;;;;11.14;97.72;95968.33;108356;1267;22554;-82
2022/09/26 00:43:44;;;;;;;8.00;7.20;;;;;;;11.11;97.70;95959.14;108336;1268;22623;-82
2022/09/26 00:46:25;;;;;;;8.60;7.60;;;;;;;11.10;97.77;95962.02;108380;1267;24190;-82
2022/09/26 00:49:04;;;;;;;8.20;7.40;;;;;;;11.10;97.56;95957.66;108305;1267;26400;-81
2022/09/26 00:51:37;;;;;;;9.30;7.60;;;;;;;11.10;97.56;95957.63;108404;1267;22661;-81
2022/09/26 00:54:12;;;;;;;10.10;8.10;;;;;;;11.07;97.31;95954.98;108391;1268;22583;-82
2022/09/26 00:56:46;;;;;;;9.40;7.90;;;;;;;11.05;97.30;95954.27;108298;1268;22689;-82
2022/09/26 00:59:23;;;;;;;9.00;8.00;;;;;;;11.04;97.17;95951.02;108296;1269;23306;-81
2022/09/26 01:01:56;;;;;;;9.90;7.90;;;;;;;11.03;97.07;95947.64;108417;1267;22524;-82
2022/09/26 01:04:28;;;;;;;9.40;7.90;;;;;;;11.03;96.95;95951.73;108325;1268;25271;-82
2022/09/26 01:07:01;;;;;;;9.10;8.20;;;;;;;10.99;96.81;95950.80;108397;1267;22553;-82
2022/09/26 01:09:34;;;;;;;11.00;8.80;;;;;;;10.97;96.85;95945.36;108352;1267;32632;-82
2022/09/26 01:12:07;;;;;;;9.30;8.30;;;;;;;10.95;96.87;95942.01;108330;1268;22680;-82
2022/09/26 01:14:40;;;;;;;9.30;8.30;;;;;;;10.94;96.83;95943.14;108318;1268;22572;-82
2022/09/26 01:17:12;;;;;;;8.90;7.90;;;;;;;10.94;96.79;95940.05;108400;1267;24491;-81
2022/09/26 01:19:50;;;;;;;10.00;8.20;;;;;;;10.94;96.86;95938.15;108310;1268;23959;-81
2022/09/26 01:23:08;;;;;;;9.20;8.30;;;;;;;10.93;96.88;95939.20;108373;1268;22652;-81
2022/09/26 01:26:12;;;;;;;9.10;8.00;;;;;;;10.93;96.83;95937.33;108325;1268;23464;-81
2022/09/26 01:29:04;;;;;;;10.10;8.30;;;;;;;10.90;96.71;95932.56;108301;1267;30999;-81
2022/09/26 01:31:42;;;;;;;10.40;8.10;;;;;;;10.88;96.64;95929.54;108395;1267;22556;-81
2022/09/26 01:34:21;;;;;;;9.40;8.40;;;;;;;10.87;96.79;95931.48;108429;1267;22523;-81
2022/09/26 01:37:13;;;;;;;10.50;8.40;;;;;;;10.86;96.81;95929.63;108395;1267;22531;-81
2022/09/26 01:39:56;;;;;;;11.60;9.00;;;;;;;10.82;96.63;95924.60;108319;1267;27640;-82
2022/09/26 01:42:36;;;;;;;9.20;8.20;;;;;;;10.80;96.79;95923.27;108320;1267;151938;-81
2022/09/26 01:45:16;;;;;;;8.90;8.00;;;;;;;10.84;96.97;95918.64;108394;1267;25300;-82
2022/09/26 01:47:54;;;;;;;10.10;8.30;;;;;;;10.83;96.86;95916.33;108421;1267;25360;-82
2022/09/26 01:50:34;;;;;;;9.60;8.10;;;;;;;10.77;96.78;95919.20;108310;1268;28560;-81
2022/09/26 01:53:10;;;;;;;10.20;8.60;;;;;;;10.72;96.98;95922.98;108341;1268;22818;-81
2022/09/26 01:55:46;;;;;;;9.60;8.60;;;;;;;10.72;97.36;95916.34;108219;1270;22658;-81
2022/09/26 01:58:25;;;;;;;8.80;7.70;;;;;;;10.76;97.42;95915.50;108224;1269;22529;-81
2022/09/26 02:01:00;;;;;;;10.10;8.30;;;;;;;10.73;97.42;95912.36;108342;1268;22552;-81
2022/09/26 02:03:39;;;;;;;10.20;8.30;;;;;;;10.66;97.32;95910.66;108253;1270;24263;-81
2022/09/26 02:06:16;;;;;;;9.40;8.40;;;;;;;10.54;97.31;95906.88;108269;1268;22821;-81
2022/09/26 02:08:52;;;;;;;9.80;8.10;;;;;;;10.42;97.42;95904.71;108160;1270;29494;-81
2022/09/26 02:11:24;;;;;;;10.50;8.40;;;;;;;10.32;97.68;95902.11;108167;1270;24361;-81
2022/09/26 02:14:01;;;;;;;9.30;8.30;;;;;;;10.23;98.00;95900.52;108210;1270;22555;-81
2022/09/26 02:16:40;;;;;;;11.00;8.70;;;;;;;10.22;98.49;95898.67;108266;1268;22696;-81
2022/09/26 02:19:18;;;;;;;9.10;8.10;;;;;;;10.24;98.73;95895.04;108104;1270;27744;-81
2022/09/26 02:21:51;;;;;;;9.10;8.00;;;;;;;10.28;98.94;95895.50;108294;1268;22535;-81
2022/09/26 02:24:26;;;;;;;7.70;6.80;;;;;;;10.32;99.05;95897.48;108278;1270;22624;-81
2022/09/26 02:26:57;;;;;;;7.20;6.50;;;;;;;10.36;99.15;95896.29;108283;1270;24303;-81
2022/09/26 02:29:28;;;;;;;9.90;6.80;;;;;;;10.39;99.20;95894.06;108228;1270;30469;-81
2022/09/26 02:32:04;;;;;;;8.40;6.20;;;;;;;10.41;99.37;95887.83;108191;1270;22597;-81
2022/09/26 02:34:35;;;;;;;8.80;7.30;;;;;;;10.43;99.34;95885.48;108289;1270;22565;-81
2022/09/26 02:37:07;;;;;;;9.10;7.70;;;;;;;10.42;99.27;95882.16;108320;1270;22575;-81
2022/09/26 02:39:40;;;;;;;11.10;7.80;;;;;;;10.41;99.18;95881.32;108169;1270;25468;-81
2022/09/26 02:42:20;;;;;;;8.20;6.90;;;;;;;10.37;99.31;95884.45;108258;1270;22624;-81
2022/09/26 02:45:13;;;;;;;8.60;7.70;;;;;;;10.34;99.41;95883.14;108168;1270;23776;-81
2022/09/26 02:48:11;;;;;;;8.30;7.10;;;;;;;10.34;99.43;95882.35;108179;1270;22547;-81
2022/09/26 02:50:57;;;;;;;8.30;7.00;;;;;;;10.33;99.35;95881.05;108224;1268;24527;-81
2022/09/26 02:53:48;;;;;;;7.20;6.50;;;;;;;10.34;99.47;95881.55;108162;1269;24330;-81
2022/09/26 02:56:28;;;;;;;7.40;5.20;;;;;;;10.35;99.45;95876.60;108155;1270;22768;-81
2022/09/26 02:59:09;;;;;;;8.10;6.80;;;;;;;10.35;99.45;95882.13;108148;1270;41696;-81
2022/09/26 03:01:48;;;;;;;9.00;6.80;;;;;;;10.36;99.44;95882.20;108258;1270;24300;-81
2022/09/26 03:04:30;;;;;;;8.90;7.80;;;;;;;10.38;99.58;95877.98;108276;1270;22659;-81
2022/09/26 03:07:07;;;;;;;7.50;6.70;;;;;;;10.39;99.57;95871.74;108244;1270;24211;-81
2022/09/26 03:09:39;;;;;;;6.20;5.60;;;;;;;10.37;99.53;95866.77;108281;1267;26458;-81
2022/09/26 03:12:11;;;;;;;6.20;5.60;;;;;;;10.33;99.58;95864.67;108397;1267;22553;-81
2022/09/26 03:14:44;;;;;;;6.10;5.10;;;;;;;10.32;99.71;95864.10;108203;1269;22552;-81
2022/09/26 03:17:18;;;;;;;6.70;5.80;;;;;;;10.33;99.87;95862.06;108260;1270;22657;-81
2022/09/26 03:19:54;;;;;;;6.80;5.90;;;;;;;10.32;99.78;95859.09;108372;1267;25825;-81
2022/09/26 03:22:26;;;;;;;7.00;6.00;;;;;;;10.21;99.61;95854.73;108401;1267;23006;-81
2022/09/26 03:25:00;;;;;;;6.40;5.50;;;;;;;10.12;99.80;95858.15;108412;1267;22688;-81
2022/09/26 03:27:32;;;;;;;6.30;4.80;;;;;;;10.07;100.00;95855.42;108410;1268;22535;-81
2022/09/26 03:30:05;;;;;;;6.50;4.60;;;;;;;10.03;100.00;95850.17;108354;1267;32933;-81
2022/09/26 03:32:47;;;;;;;5.90;4.70;;;;;;;9.98;100.00;95842.98;108440;1267;22790;-81
2022/09/26 03:35:19;;;;;;;6.50;5.90;;;;;;;9.96;100.00;95836.17;108326;1268;22538;-81
2022/09/26 03:37:51;;;;;;;7.50;6.60;;;;;;;9.98;100.00;95836.80;108338;1268;22769;-81
2022/09/26 03:40:23;;;;;;;7.90;6.10;;;;;;;9.99;100.00;95838.36;108357;1267;27427;-81
2022/09/26 03:42:54;;;;;;;7.00;5.80;;;;;;;9.98;100.00;95834.23;108480;1267;22643;-81
2022/09/26 03:45:27;;;;;;;7.40;6.10;;;;;;;9.97;100.00;95829.55;108412;1267;22533;-81
2022/09/26 03:47:58;;;;;;;6.90;6.20;;;;;;;9.92;100.00;95830.02;108303;1268;24390;-81
2022/09/26 03:50:30;;;;;;;5.70;5.20;;;;;;;9.89;100.00;95826.70;108365;1267;29153;-81
2022/09/26 03:53:02;;;;;;;8.00;6.20;;;;;;;9.89;100.00;95828.60;108421;1267;25286;-81
2022/09/26 03:55:33;;;;;;;7.40;6.60;;;;;;;9.91;100.00;95824.16;108334;1268;25406;-81
2022/09/26 03:58:04;;;;;;;7.60;6.80;;;;;;;9.90;100.00;95822.13;108438;1267;25290;-81
2022/09/26 04:00:37;;;;;;;7.40;6.60;;;;;;;9.91;100.00;95820.08;108336;1267;33193;-81
2022/09/26 04:03:09;;;;;;;6.70;5.80;;;;;;;9.95;100.00;95815.77;108410;1267;22526;-81
2022/09/26 04:05:44;;;;;;;6.00;5.30;;;;;;;9.97;100.00;95816.41;108415;1267;24211;-81
2022/09/26 04:08:15;;;;;;;7.40;5.60;;;;;;;9.99;100.00;95817.77;108446;1267;22537;-81
2022/09/26 04:10:47;;;;;;;7.90;6.10;;;;;;;10.00;100.00;95820.30;108404;1267;23952;-81
2022/09/26 04:13:18;;;;;;;6.60;5.90;;;;;;;10.00;100.00;95817.96;108422;1267;22523;-81
2022/09/26 04:15:56;;;;;;;6.50;5.70;;;;;;;10.02;100.00;95820.84;108451;1267;22559;-81
2022/09/26 04:18:28;;;;;;;6.60;6.00;;;;;;;10.04;100.00;95821.59;108231;1268;33056;-80
2022/09/26 04:21:01;;;;;;;5.70;5.10;;;;;;;10.06;100.00;95818.52;108228;1270;22479;-81
2022/09/26 04:23:36;;;;;;;7.60;5.50;;;;;;;10.07;100.00;95821.46;108242;1270;22554;-81
2022/09/26 04:26:09;;;;;;;5.50;4.90;;;;;;;10.09;100.00;95820.26;108321;1270;22722;-81
2022/09/26 04:28:42;;;;;;;6.20;5.10;;;;;;;10.00;100.00;95816.67;108220;1267;28802;-81
2022/09/26 04:31:14;;;;;;;6.00;5.40;;;;;;;9.92;100.00;95813.13;108268;1270;24063;-81
2022/09/26 04:33:45;;;;;;;5.90;5.20;;;;;;;9.90;100.00;95809.20;108271;1270;22527;-81
2022/09/26 04:36:19;;;;;;;6.50;5.20;;;;;;;9.93;100.00;95809.89;108311;1270;23216;-80
2022/09/26 04:38:51;;;;;;;6.40;5.80;;;;;;;9.92;100.00;95812.34;108252;1270;24790;-81
2022/09/26 04:41:23;;;;;;;7.40;5.40;;;;;;;9.93;100.00;95813.48;108300;1270;24464;-81
2022/09/26 04:43:55;;;;;;;6.20;5.60;;;;;;;9.97;100.00;95810.95;108284;1270;22535;-81
2022/09/26 04:46:28;;;;;;;6.80;6.10;;;;;;;9.98;100.00;95803.31;108302;1270;22577;-81
2022/09/26 04:49:01;;;;;;;9.10;6.40;;;;;;;9.92;100.00;95805.61;108195;1270;34011;-81
2022/09/26 04:51:33;;;;;;;7.00;6.20;;;;;;;9.83;100.00;95805.84;108241;1270;22580;-80
2022/09/26 04:54:07;;;;;;;8.00;7.10;;;;;;;9.78;100.00;95803.48;108234;1269;22577;-81
2022/09/26 04:56:38;;;;;;;8.10;7.10;;;;;;;9.78;100.00;95801.14;108288;1270;22558;-81
2022/09/26 04:59:10;;;;;;;8.30;7.40;;;;;;;9.83;100.00;95798.92;108185;1270;34037;-80
2022/09/26 05:01:41;;;;;;;9.60;7.20;;;;;;;9.90;100.00;95799.20;108318;1270;22522;-81
2022/09/26 05:04:12;;;;;;;7.60;6.70;;;;;;;9.96;100.00;95801.66;108264;1270;22893;-81
2022/09/26 05:06:43;;;;;;;7.60;6.80;;;;;;;10.02;100.00;95803.56;108290;1270;22540;-81
2022/09/26 05:09:15;;;;;;;8.30;6.20;;;;;;;10.08;100.00;95803.71;108207;1270;33730;-81
2022/09/26 05:11:46;;;;;;;9.20;6.80;;;;;;;10.14;100.00;95798.52;108306;1268;22531;-81
2022/09/26 05:14:17;;;;;;;8.10;6.70;;;;;;;10.17;100.00;95793.13;108335;1268;23439;-81
2022/09/26 05:16:49;;;;;;;7.40;6.70;;;;;;;10.17;100.00;95794.72;108352;1268;22554;-81
2022/09/26 05:19:20;;;;;;;7.20;6.50;;;;;;;10.17;100.00;95789.42;108207;1270;27703;-80
2022/09/26 05:21:51;;;;;;;8.50;7.20;;;;;;;10.16;100.00;95788.54;108264;1270;22530;-81
2022/09/26 05:27:16;;;;;;;8.60;7.20;;;;;;;10.14;100.00;95786.04;108309;1270;22577;-81
2022/09/26 05:29:47;;;;;;;7.60;6.90;;;;;;;10.16;100.00;95787.95;108248;1268;33321;-80
2022/09/26 05:32:19;;;;;;;8.30;7.40;;;;;;;10.18;100.00;95786.90;108315;1270;22546;-81
2022/09/26 05:34:50;;;;;;;7.90;7.10;;;;;;;10.21;100.00;95783.93;108296;1270;22545;-81
2022/09/26 05:37:22;;;;;;;8.50;7.10;;;;;;;10.25;100.00;95784.54;108313;1268;22584;-81
2022/09/26 05:42:42;;;;;;;7.70;6.90;;;;;;;10.31;100.00;95782.38;108290;1270;22649;-81
2022/09/26 05:45:14;;;;;;;8.30;6.90;;;;;;;10.33;100.00;95778.69;108194;1270;22559;-81
2022/09/26 05:47:47;;;;;;;7.70;6.80;;;;;;;10.38;100.00;95775.63;108293;1270;22548;-81
2022/09/26 05:50:21;;;;;;;8.00;6.10;;;;;;;10.43;100.00;95766.96;108230;1270;26796;-81
2022/09/26 05:52:56;;;;;;;8.60;7.00;;;;;;;10.49;100.00;95774.27;108265;1270;24321;-81
2022/09/26 05:55:29;;;;;;;9.10;7.00;;;;;;;10.51;100.00;95775.54;108285;1267;22538;-81
2022/09/26 05:58:01;;;;;;;9.10;7.90;;;;;;;10.52;100.00;95772.65;108232;1270;25284;-81
2022/09/26 06:00:32;;;;;;;8.70;7.50;;;;;;;10.55;100.00;95777.21;108228;1270;28572;-81
2022/09/26 06:03:04;;;;;;;10.20;8.90;;;;;;;10.59;100.00;95774.39;108200;1270;22621;-81
2022/09/26 06:05:37;;;;;;;9.60;8.50;;;;;;;10.60;100.00;95773.92;108195;1270;23349;-81
2022/09/26 06:08:09;;;;;;;9.00;8.00;;;;;;;10.61;100.00;95771.35;108193;1270;23587;-81
2022/09/26 06:10:41;;;;;;;9.10;8.10;;;;;;;10.62;100.00;95772.91;108196;1269;26347;-81
2022/09/26 06:13:14;;;;;;;8.70;7.80;;;;;;;10.64;100.00;95766.56;108187;1270;22526;-80
2022/09/26 06:15:48;;;;;;;8.60;7.60;;;;;;;10.66;100.00;95766.14;108178;1270;22568;-81
2022/09/26 06:18:19;;;;;;;8.50;7.20;;;;;;;10.67;100.00;95766.48;108270;1270;24278;-81
2022/09/26 06:20:50;;;;;;;9.00;8.10;;;;;;;10.67;100.00;95765.33;108174;1270;22695;-81
2022/09/26 06:23:21;;;;;;;8.60;7.70;;;;;;;10.66;100.00;95765.23;108164;1270;22685;-80
2022/09/26 06:25:52;;;;;;;9.20;7.70;;;;;;;10.67;100.00;95763.15;108198;1270;24230;-81
2022/09/26 06:28:24;;;;;;;9.10;7.60;;;;;;;10.69;100.00;95762.73;108206;1270;25005;-81
2022/09/26 06:30:55;;;;;;;8.80;7.90;;;;;;;10.72;100.00;95761.22;108282;1270;25277;-81
2022/09/26 06:33:26;;;;;;;8.90;7.80;;;;;;;10.76;100.00;95759.80;108268;1270;24259;-81
2022/09/26 06:36:04;;;;;;;9.30;8.30;;;;;;;10.78;100.00;95755.29;108247;1270;24271;-81
2022/09/26 06:38:36;;;;;;;10.60;8.30;;;;;;;10.80;100.00;95749.79;108129;1270;29045;-80
2022/09/26 06:41:09;;;;;;;8.50;7.70;;;;;;;10.84;100.00;95748.52;108254;1270;22529;-81
2022/09/26 06:43:40;;;;;;;9.60;8.60;;;;;;;10.87;100.00;95750.52;108252;1270;22654;-81
2022/09/26 06:46:11;;;;;;;9.00;8.10;;;;;;;10.87;100.00;95751.95;108285;1270;22525;-81
2022/09/26 06:48:43;;;;;;;8.20;7.30;;;;;;;10.88;100.00;95750.92;108182;1270;31179;-80
2022/09/26 06:51:18;;;;;;;8.80;7.90;;;;;;;10.89;100.00;95751.17;108364;1267;24257;-81
2022/09/26 06:53:50;;;;;;;8.80;7.70;;;;;;;10.91;100.00;95751.53;108439;1267;22931;-81
2022/09/26 06:56:21;;;;;;;9.50;8.50;;;;;;;10.92;100.00;95753.32;108386;1268;22535;-81
2022/09/26 06:58:52;;;;;;;10.30;8.30;;;;;;;10.90;100.00;95752.90;108315;1267;40992;-81
2022/09/26 07:01:24;;;;;;;9.30;8.40;;;;;;;10.88;100.00;95755.48;108423;1267;22624;-81
2022/09/26 07:03:55;;;;;;;11.00;9.10;;;;;;;10.88;100.00;95756.51;108380;1267;25157;-81
2022/09/26 07:06:27;;;;;;;10.30;9.00;;;;;;;10.83;100.00;95755.33;108306;1268;22522;-81
2022/09/26 07:08:59;;;;;;;10.30;9.30;;;;;;;10.79;100.00;95756.70;108274;1268;24779;-81
2022/09/26 07:11:31;;;;;;;10.40;9.30;;;;;;;10.77;100.00;95755.66;108449;1268;22576;-81
2022/09/26 07:14:02;;;;;;;11.20;9.60;;;;;;;10.82;100.00;95754.66;108368;1267;22531;-81
2022/09/26 07:16:34;;;;;;;10.10;9.10;;;;;;;10.87;100.00;95756.84;108407;1267;24224;-81
2022/09/26 07:19:05;;;;;;;10.10;9.10;;;;;;;10.92;100.00;95761.18;108316;1267;33468;-81
2022/09/26 07:21:36;;;;;;;10.10;9.10;;;;;;;10.95;100.00;95763.38;108419;1268;24200;-81
2022/09/26 07:24:12;;;;;;;10.70;9.30;;;;;;;10.94;100.00;95760.91;108387;1268;22530;-81
2022/09/26 07:26:44;;;;;;;10.50;9.50;;;;;;;10.89;100.00;95757.27;108417;1267;22644;-81
2022/09/26 07:29:16;;;;;;;10.60;9.50;;;;;;;10.88;100.00;95758.29;108296;1267;33860;-81
2022/09/26 07:31:51;;;;;;;11.40;10.00;;;;;;;10.91;100.00;95751.85;108418;1267;22540;-81
2022/09/26 07:34:23;;;;;;;10.50;9.50;;;;;;;10.98;100.00;95758.23;108317;1268;22560;-81
2022/09/26 07:36:56;;;;;;;10.40;9.40;;;;;;;10.98;100.00;95761.95;108434;1268;22532;-81
2022/09/26 07:39:28;;;;;;;15.20;13.20;;;;;;;10.95;100.00;95763.91;108334;1268;27648;-81
2022/09/26 07:42:03;;;;;;;20.10;16.70;;;;;;;10.93;100.00;95759.75;108332;1268;22704;-81
2022/09/26 07:44:34;;;;;;;17.90;13.50;;;;;;;10.96;100.00;95760.59;108387;1267;24767;-81
2022/09/26 07:50:13;;;;;;;12.20;10.90;;;;;;;11.13;100.00;95755.23;108341;1267;27041;-81
2022/09/26 07:52:48;;;;;;;15.70;14.00;;;;;;;11.20;100.00;95752.60;108306;1268;24233;-81
2022/09/26 07:55:24;;;;;;;13.30;11.90;;;;;;;11.22;100.00;95753.23;108326;1268;22666;-81
2022/09/26 07:57:56;;;;;;;14.00;12.50;;;;;;;11.23;100.00;95752.69;108407;1268;22872;-82
2022/09/26 08:00:29;;;;;;;13.90;11.80;;;;;;;11.27;100.00;95752.27;108341;1268;29932;-81
2022/09/26 08:03:04;;;;;;;11.80;10.40;;;;;;;11.32;100.00;95749.97;108387;1268;23129;-82
2022/09/26 08:05:36;;;;;;;12.50;10.80;;;;;;;11.37;100.00;95746.87;108335;1269;24310;-81
2022/09/26 08:08:07;;;;;;;12.00;10.00;;;;;;;11.44;100.00;95747.73;108299;1269;23823;-81
2022/09/26 08:10:38;;;;;;;10.70;9.70;;;;;;;11.49;100.00;95748.21;108251;1269;30877;-81
2022/09/26 08:13:10;;;;;;;11.90;9.90;;;;;;;11.55;100.00;95744.26;108393;1267;22560;-82
2022/09/26 08:15:41;;;;;;;11.20;9.30;;;;;;;11.62;100.00;95741.19;108384;1268;22529;-81
2022/09/26 08:18:13;;;;;;;12.40;10.50;;;;;;;11.69;100.00;95738.73;108350;1268;24228;-81
2022/09/26 08:20:46;;;;;;;12.00;9.90;;;;;;;11.74;100.00;95734.09;108266;1268;28158;-81
2022/09/26 08:23:18;;;;;;;11.70;10.50;;;;;;;11.80;100.00;95727.89;108362;1268;24344;-82
2022/09/26 08:25:50;;;;;;;11.10;10.00;;;;;;;11.82;100.00;95730.38;108329;1268;22557;-81
2022/09/26 08:28:25;;;;;;;11.40;10.30;;;;;;;11.90;100.00;95728.90;108330;1268;22529;-81
2022/09/26 08:31:04;;;;;;;11.60;9.60;;;;;;;12.00;100.00;95734.05;108433;1268;22653;-81
2022/09/26 08:33:37;;;;;;;10.60;9.00;;;;;;;12.06;100.00;95738.59;108351;1268;24417;-81
2022/09/26 08:36:11;;;;;;;10.50;9.40;;;;;;;12.05;100.00;95738.25;108366;1267;22548;-81
2022/09/26 08:38:42;;;;;;;10.70;9.00;;;;;;;12.06;100.00;95735.10;108357;1268;23836;-81
2022/09/26 08:41:31;;;;;;;11.30;10.10;;;;;;;12.00;100.00;95741.38;108329;1268;24377;-82
2022/09/26 08:44:21;;;;;;;10.20;9.20;;;;;;;11.96;100.00;95739.26;108407;1267;22692;-81
2022/09/26 08:47:00;;;;;;;13.00;9.80;;;;;;;12.01;100.00;95741.25;108349;1268;22892;-82
2022/09/26 08:49:43;;;;;;;9.90;8.40;;;;;;;12.06;100.00;95734.25;108270;1270;23883;-81
2022/09/26 08:52:33;;;;;;;9.60;8.60;;;;;;;12.09;100.00;95736.82;108352;1268;22609;-81
2022/09/26 08:55:13;;;;;;;10.30;8.80;;;;;;;12.13;100.00;95733.95;108354;1268;22547;-82
2022/09/26 08:57:50;;;;;;;10.40;8.30;;;;;;;12.17;100.00;95735.20;108434;1268;22701;-82
2022/09/26 09:00:24;;;;;;;9.30;8.30;;;;;;;12.16;100.00;95740.39;108350;1268;28695;-81
2022/09/26 09:03:08;;;;;;;8.90;8.00;;;;;;;12.11;100.00;95742.97;108429;1268;24227;-81
2022/09/26 09:05:43;;;;;;;10.80;8.70;;;;;;;12.05;100.00;95746.76;108391;1268;24236;-81
2022/09/26 09:08:21;;;;;;;8.70;7.70;;;;;;;12.04;100.00;95743.81;108398;1267;22536;-82
2022/09/26 09:11:02;;;;;;;9.60;8.00;;;;;;;12.01;100.00;95745.94;108404;1268;22530;-82
2022/09/26 09:13:48;;;;;;;9.60;8.20;;;;;;;11.96;100.00;95745.89;108341;1268;22641;-82
2022/09/26 09:16:32;;;;;;;8.30;7.50;;;;;;;11.91;100.00;95747.46;108390;1268;22519;-81
2022/09/26 09:19:12;;;;;;;8.60;7.60;;;;;;;11.82;100.00;95747.23;108293;1268;32690;-81
2022/09/26 09:21:55;;;;;;;10.20;8.60;;;;;;;11.78;100.00;95743.91;108342;1271;23029;-81
2022/09/26 09:24:40;;;;;;;9.10;8.20;;;;;;;11.76;100.00;95743.31;108319;1268;22535;-81
2022/09/26 09:27:22;;;;;;;10.00;9.00;;;;;;;11.75;100.00;95742.97;108353;1268;22527;-81
2022/09/26 09:30:03;;;;;;;10.50;9.30;;;;;;;11.76;100.00;95739.53;108300;1268;28216;-80
2022/09/26 09:32:47;;;;;;;11.00;9.40;;;;;;;11.75;100.00;95739.78;108319;1271;24292;-81
2022/09/26 09:35:24;;;;;;;11.10;10.00;;;;;;;11.75;100.00;95736.72;108379;1268;24268;-81
2022/09/26 09:37:56;;;;;;;10.40;9.30;;;;;;;11.76;100.00;95739.00;108322;1271;22679;-82
2022/09/26 09:40:33;;;;;;;10.70;9.00;;;;;;;11.80;100.00;95740.67;108312;1268;28766;-82
2022/09/26 09:43:07;;;;;;;9.90;8.90;;;;;;;11.83;100.00;95742.70;108383;1268;22581;-82
2022/09/26 09:45:46;;;;;;;9.60;8.60;;;;;;;11.84;100.00;95743.98;108375;1268;22556;-81
2022/09/26 09:48:17;;;;;;;10.30;9.20;;;;;;;11.86;100.00;95746.39;108334;1268;22531;-82
2022/09/26 09:51:05;;;;;;;9.80;8.70;;;;;;;11.85;100.00;95748.48;108396;1268;22558;-81
2022/09/26 09:54:08;;;;;;;11.30;9.10;;;;;;;11.83;100.00;95749.39;108355;1268;25287;-82
2022/09/26 09:56:51;;;;;;;10.50;8.60;;;;;;;11.83;100.00;95747.85;108305;1271;23136;-81
2022/09/26 09:59:41;;;;;;;9.60;8.70;;;;;;;11.82;100.00;95751.31;108291;1268;25350;-81
2022/09/26 10:02:21;;;;;;;9.60;8.40;;;;;;;11.82;100.00;95750.73;108252;1270;22555;-81
2022/09/26 10:05:01;;;;;;;10.90;9.20;;;;;;;11.80;100.00;95753.00;108330;1271;22526;-81
2022/09/26 10:07:33;;;;;;;9.90;8.70;;;;;;;11.77;100.00;95744.88;108300;1270;24234;-81
2022/09/26 10:10:06;;;;;;;10.80;9.00;;;;;;;11.78;100.00;95750.60;108249;1268;24791;-82
2022/09/26 10:12:39;;;;;;;12.50;9.50;;;;;;;11.71;100.00;95749.36;108366;1268;22522;-81
2022/09/26 10:15:19;;;;;;;10.80;9.10;;;;;;;11.60;100.00;95750.05;108337;1268;22533;-82
2022/09/26 10:18:13;;;;;;;11.70;9.40;;;;;;;11.51;100.00;95750.28;108397;1268;24717;-82
2022/09/26 10:20:52;;;;;;;10.10;9.10;;;;;;;11.42;100.00;95747.97;108322;1268;33367;-81
2022/09/26 10:23:31;;;;;;;11.00;9.90;;;;;;;11.33;100.00;95748.57;108405;1268;22529;-81
2022/09/26 10:26:06;;;;;;;12.70;11.40;;;;;;;11.27;100.00;95749.95;108357;1268;22538;-82
2022/09/26 10:28:48;;;;;;;12.10;10.40;;;;;;;11.28;100.00;95754.85;108314;1268;30685;-82
2022/09/26 10:31:28;;;;;;;12.50;11.20;;;;;;;11.29;100.00;95757.77;108306;1268;22691;-81
2022/09/26 10:34:02;;;;;;;12.70;10.90;;;;;;;11.32;100.00;95756.83;108369;1268;22544;-81
2022/09/26 10:36:35;;;;;;;10.70;9.50;;;;;;;11.36;100.00;95753.08;108327;1268;23836;-82
2022/09/26 10:42:21;;;;;;;9.30;8.40;;;;;;;11.29;100.00;95743.83;107990;1274;22675;-82
2022/09/26 10:44:56;;;;;;;8.80;7.90;;;;;;;11.25;100.00;95743.98;108281;1268;25930;-81
2022/09/26 10:47:30;;;;;;;9.40;8.40;;;;;;;11.23;100.00;95742.38;108405;1268;22626;-82
2022/09/26 10:50:08;;;;;;;10.60;8.80;;;;;;;11.22;100.00;95735.95;108306;1268;31334;-81
2022/09/26 10:52:44;;;;;;;9.70;8.70;;;;;;;11.27;100.00;95737.40;108387;1268;25416;-82
2022/09/26 10:55:24;;;;;;;10.10;8.50;;;;;;;11.33;100.00;95734.89;108329;1268;24229;-81
2022/09/26 10:57:58;;;;;;;9.40;8.40;;;;;;;11.38;100.00;95727.85;108319;1269;22677;-81
2022/09/26 11:00:40;;;;;;;9.30;8.20;;;;;;;11.46;100.00;95730.31;108308;1268;42837;-81
2022/09/26 11:03:13;;;;;;;8.70;7.70;;;;;;;11.59;100.00;95726.85;108382;1267;22563;-81
2022/09/26 11:05:56;;;;;;;9.20;8.10;;;;;;;11.68;100.00;95726.32;108341;1271;22543;-81
2022/09/26 11:08:30;;;;;;;11.20;9.40;;;;;;;11.78;100.00;95724.84;108243;1268;34230;-81
2022/09/26 11:11:03;;;;;;;13.10;10.90;;;;;;;11.86;100.00;95727.15;108331;1268;22533;-82
2022/09/26 11:13:46;;;;;;;9.90;8.90;;;;;;;11.97;100.00;95724.52;108361;1268;25678;-81
2022/09/26 11:16:19;;;;;;;8.80;6.90;;;;;;;12.13;100.00;95721.12;108355;1268;24185;-81
2022/09/26 11:18:58;;;;;;;9.00;7.80;;;;;;;12.28;100.00;95723.40;108214;1268;40144;-81
2022/09/26 11:21:38;;;;;;;8.00;7.20;;;;;;;12.44;100.00;95719.59;108351;1268;22586;-81
2022/09/26 11:24:21;;;;;;;6.20;5.30;;;;;;;12.62;100.00;95720.71;108354;1268;22545;-82
2022/09/26 11:27:05;;;;;;;5.50;4.60;;;;;;;12.81;100.00;95717.46;108362;1268;22516;-81
2022/09/26 11:29:44;;;;;;;3.50;3.20;;;;;;;12.97;100.00;95713.77;108243;1268;35369;-81
2022/09/26 11:32:24;;;;;;;3.20;2.80;;;;;;;13.05;100.00;95714.34;108325;1268;23767;-82
2022/09/26 11:35:01;;;;;;;2.50;2.30;;;;;;;13.12;100.00;95705.33;108367;1267;22524;-82
2022/09/26 11:38:04;;;;;;;2.40;2.20;;;;;;;13.34;100.00;95706.06;108381;1268;22577;-82
2022/09/26 11:40:52;;;;;;;2.30;2.10;;;;;;;13.72;100.00;95698.55;108271;1268;33617;-82
2022/09/26 11:43:38;;;;;;;1.70;1.60;;;;;;;14.03;100.00;95697.85;108286;1268;22669;-82
2022/09/26 11:46:26;;;;;;;2.20;2.00;;;;;;;14.17;100.00;95696.35;108358;1268;22659;-82
2022/09/26 11:49:27;;;;;;;2.90;2.60;;;;;;;14.27;100.00;95693.08;108250;1268;24240;-81
2022/09/26 11:52:16;;;;;;;3.00;2.70;;;;;;;14.44;100.00;95686.56;108317;1268;22732;-81
2022/09/26 11:55:05;;;;;;;4.30;2.90;;;;;;;14.64;100.00;95681.21;108356;1268;22529;-81
2022/09/26 11:57:50;;;;;;;2.60;2.40;;;;;;;14.73;100.00;95674.45;108276;1268;23248;-80
2022/09/26 12:00:26;;;;;;;3.60;2.50;;;;;;;14.91;99.91;95674.54;108305;1268;35990;-80
2022/09/26 12:03:32;;;;;;;2.70;2.10;;;;;;;14.78;99.08;95669.27;108311;1268;22564;-81
2022/09/26 12:06:18;;;;;;;2.50;2.30;;;;;;;14.54;97.71;95667.29;108388;1268;22558;-81
2022/09/26 12:09:03;;;;;;;2.20;2.00;;;;;;;14.23;97.86;95672.67;108251;1268;37271;-81